Pagrindinis puslapis
METAR-TAF:

METAR-TAF

Oro uostai :

Brønnøysund, Norvegija

platuma: 65-28N, ilguma: 012-13E, Aukštis: 0 m

Dabartinis oras

Ataskaita buvo paskelbta 27 minutes, ne 12:20 UTC
Vėjas 10 kt iš Rytų
Temperatūra 4°C
Drėgmė 65%
Slėgis 991 hPa
Matomumas 10 km arba daugiau
Mažai debesys ne aukštis 4000 ft
Išsisklaidę debesys ne aukštis 7000 ft

METAR: ENBN 161220Z 09010KT 9999 FEW040 SCT070 04/M02 Q0991

Laikas: 13:47 (12:47 UTC)

Prognozė

Ataskaita buvo paskelbta 1 valandą ir 47 minutes, ne 11:00 UTC
Prognozė galioja nuo 16 metu 12 UTC su 16 metu 20 UTC
Vėjas 8 kt iš Rytų/Pietryčių
Matomumas 10 km arba daugiau
Mažai debesys ne aukštis 3000 ft
Su prošvaistėmis ne aukštis 5000 ft
Laikinai
nuo 16 metu 15 UTC su 16 metu 20 UTC
Mažai debesys ne aukštis 1800 ft, Liūtiniai kamuoliniai debesys.

TAF: ENBN 161100Z 1612/1620 12008KT 9999 FEW030 BKN050 TEMPO 1615/1620 FEW018CB

Orai ataskaitas ir orų prognozės (METAR, TAF).

turimą stotys yra geltonos ir raudonos taškus žemėlapyje.

Perkelti pele per norėdami pamatyti stoties vardą.

Tada spustelėkite, norėdami matyti oro stebėjimo ir prognozės.

Norėdami pakeisti žemėlapį: spustelėkite ant žalios mygtukų su juodo kryžiaus žemyn,; žalią mygtuką su brūkšneliu, jei norite nutolinti; arba žalių rodyklių gretimoms žemėlapius.


METAR-TAF: